Time;durP1;ratioP1;P1;durP2;ratioP2;P2;SDS_P1;SDS_P2;PMS_P1;PMS_P2;Temp;Humidity;BMP_temperature;BMP_pressure;BME280_temperature;BME280_humidity;BME280_pressure;Samples;Min_cycle;Max_cycle;Signal;HPM_P1;HPM_P2
2023/04/27 00:02:05;;;;;;;17.10;6.30;;;;;;;14.09;100.00;100309.78;107492;1279;59053;-78
2023/04/27 00:04:31;;;;;;;12.00;6.10;;;;;;;14.12;100.00;100308.88;107450;1279;59386;-78
2023/04/27 00:06:56;;;;;;;17.80;6.50;;;;;;;14.10;100.00;100309.77;107348;1280;59055;-78
2023/04/27 00:09:22;;;;;;;17.20;6.20;;;;;;;14.22;100.00;100309.08;107496;1278;59158;-79
2023/04/27 00:11:48;;;;;;;11.60;5.90;;;;;;;14.25;100.00;100311.58;107483;1279;59076;-79
2023/04/27 00:14:13;;;;;;;17.30;6.70;;;;;;;14.30;100.00;100309.79;107439;1278;59499;-78
2023/04/27 00:16:39;;;;;;;24.20;6.90;;;;;;;14.32;100.00;100309.06;107527;1279;59462;-78
2023/04/27 00:19:04;;;;;;;14.00;6.60;;;;;;;14.34;100.00;100306.11;107380;1279;59338;-79
2023/04/27 00:21:30;;;;;;;12.70;6.70;;;;;;;14.33;100.00;100301.58;107493;1279;59191;-78
2023/04/27 00:23:56;;;;;;;15.60;6.60;;;;;;;14.24;100.00;100299.42;107503;1278;58978;-78
2023/04/27 00:26:21;;;;;;;18.80;6.70;;;;;;;14.08;100.00;100299.77;107527;1279;59107;-78
2023/04/27 00:28:47;;;;;;;12.70;5.70;;;;;;;14.10;100.00;100299.09;107511;1278;59082;-79
2023/04/27 00:31:12;;;;;;;12.00;5.10;;;;;;;14.18;100.00;100296.55;107352;1280;59085;-79
2023/04/27 00:33:38;;;;;;;15.40;5.40;;;;;;;14.23;100.00;100295.02;107191;1279;60137;-78
2023/04/27 00:36:04;;;;;;;12.90;5.50;;;;;;;14.29;100.00;100292.73;107510;1278;59939;-78
2023/04/27 00:38:30;;;;;;;20.60;5.50;;;;;;;14.30;100.00;100292.52;107157;1278;59243;-78
2023/04/27 00:41:02;;;;;;;14.80;5.30;;;;;;;14.27;100.00;100295.40;107524;1278;74100;-79
2023/04/27 00:43:28;;;;;;;13.70;5.60;;;;;;;14.20;100.00;100297.40;107439;1279;73460;-79
2023/04/27 00:45:54;;;;;;;15.20;5.70;;;;;;;14.20;100.00;100298.05;107485;1278;59060;-79
2023/04/27 00:48:19;;;;;;;13.40;5.10;;;;;;;14.28;100.00;100301.90;107532;1279;59496;-78
2023/04/27 00:50:45;;;;;;;11.30;5.10;;;;;;;14.27;100.00;100301.54;107493;1278;59081;-79
2023/04/27 00:53:10;;;;;;;13.40;5.30;;;;;;;14.26;100.00;100307.29;107525;1278;59447;-79
2023/04/27 00:55:36;;;;;;;12.00;5.30;;;;;;;14.19;100.00;100301.20;107460;1279;62890;-78
2023/04/27 00:58:01;;;;;;;12.00;5.60;;;;;;;14.09;100.00;100295.96;107493;1279;59031;-78
2023/04/27 01:00:27;;;;;;;13.20;5.50;;;;;;;14.10;100.00;100300.23;107480;1279;59044;-78
2023/04/27 01:02:54;;;;;;;12.40;4.70;;;;;;;14.07;100.00;100305.26;107508;1279;59024;-79
2023/04/27 01:05:21;;;;;;;8.70;5.20;;;;;;;13.97;100.00;100315.19;107060;1279;59050;-78
2023/04/27 01:07:47;;;;;;;16.90;5.20;;;;;;;13.89;100.00;100300.44;107439;1278;58962;-79
2023/04/27 01:10:12;;;;;;;10.50;5.40;;;;;;;13.92;100.00;100297.75;107506;1279;59004;-78
2023/04/27 01:12:38;;;;;;;11.00;5.10;;;;;;;13.90;100.00;100289.70;107500;1279;58997;-78
2023/04/27 01:15:06;;;;;;;13.60;5.20;;;;;;;13.79;100.00;100289.34;107466;1278;73389;-79
2023/04/27 01:17:31;;;;;;;13.70;5.60;;;;;;;13.78;100.00;100294.55;107462;1278;61516;-77
2023/04/27 01:19:58;;;;;;;8.90;5.00;;;;;;;13.78;100.00;100290.83;107492;1278;59057;-78
2023/04/27 01:22:24;;;;;;;14.50;5.20;;;;;;;13.78;100.00;100289.89;107469;1279;59093;-78
2023/04/27 01:24:49;;;;;;;13.00;5.10;;;;;;;13.79;100.00;100282.84;107025;1278;59116;-79
2023/04/27 01:27:15;;;;;;;12.80;5.20;;;;;;;13.76;100.00;100280.98;107432;1278;59380;-79
2023/04/27 01:29:40;;;;;;;15.70;5.40;;;;;;;13.71;100.00;100272.05;107500;1279;59075;-78
2023/04/27 01:32:06;;;;;;;10.10;5.00;;;;;;;13.69;100.00;100263.09;107545;1279;59144;-78
2023/04/27 01:34:32;;;;;;;12.70;5.60;;;;;;;13.69;100.00;100261.52;107202;1279;60088;-78
2023/04/27 01:36:57;;;;;;;13.90;5.50;;;;;;;13.69;100.00;100261.06;107477;1278;59019;-78
2023/04/27 01:39:23;;;;;;;19.10;5.50;;;;;;;13.69;100.00;100261.94;107488;1279;59019;-78
2023/04/27 01:41:48;;;;;;;14.50;6.40;;;;;;;13.68;100.00;100257.67;107480;1279;59048;-79
2023/04/27 01:44:14;;;;;;;13.80;6.00;;;;;;;13.65;100.00;100259.02;107506;1279;59026;-78
2023/04/27 01:46:39;;;;;;;17.60;6.10;;;;;;;13.57;100.00;100257.79;107479;1278;59125;-78
2023/04/27 01:49:05;;;;;;;12.40;5.10;;;;;;;13.62;100.00;100255.46;107431;1279;58972;-78
2023/04/27 01:51:31;;;;;;;12.70;5.50;;;;;;;13.60;100.00;100252.84;107497;1278;59071;-78
2023/04/27 01:53:57;;;;;;;16.60;5.20;;;;;;;13.55;100.00;100249.42;107474;1280;59107;-78
2023/04/27 01:56:23;;;;;;;12.00;5.80;;;;;;;13.64;100.00;100248.08;107482;1280;59249;-79
2023/04/27 01:58:48;;;;;;;11.10;5.20;;;;;;;13.69;100.00;100246.73;107473;1279;59536;-78
2023/04/27 02:01:14;;;;;;;14.20;5.40;;;;;;;13.65;100.00;100241.41;107442;1278;61047;-78
2023/04/27 02:03:39;;;;;;;12.50;5.20;;;;;;;13.60;100.00;100245.48;107477;1278;59083;-78
2023/04/27 02:06:05;;;;;;;14.10;5.50;;;;;;;13.69;100.00;100248.52;107485;1279;59052;-78
2023/04/27 02:08:30;;;;;;;12.80;5.50;;;;;;;13.70;100.00;100246.55;107197;1279;59145;-78
2023/04/27 02:10:56;;;;;;;12.40;5.40;;;;;;;13.66;100.00;100262.77;107505;1279;59077;-78
2023/04/27 02:13:21;;;;;;;13.30;5.40;;;;;;;13.55;100.00;100258.79;107463;1279;75253;-78
2023/04/27 02:15:47;;;;;;;12.40;5.20;;;;;;;13.53;100.00;100252.20;107477;1278;59441;-78
2023/04/27 02:18:14;;;;;;;11.10;5.50;;;;;;;13.56;100.00;100255.42;107170;1279;59317;-78
2023/04/27 02:20:40;;;;;;;9.90;5.10;;;;;;;13.62;100.00;100259.73;107433;1278;58982;-78
2023/04/27 02:23:05;;;;;;;12.00;5.30;;;;;;;13.71;100.00;100257.10;107497;1279;59482;-78
2023/04/27 02:25:31;;;;;;;12.40;6.00;;;;;;;13.64;100.00;100253.01;106993;1279;59181;-78
2023/04/27 02:27:56;;;;;;;13.30;5.90;;;;;;;13.61;100.00;100258.95;107387;1279;59086;-78
2023/04/27 02:30:22;;;;;;;13.80;6.70;;;;;;;13.61;100.00;100257.27;107338;1280;58997;-78
2023/04/27 02:32:48;;;;;;;12.60;6.30;;;;;;;13.51;100.00;100247.38;107355;1279;59028;-78
2023/04/27 02:35:13;;;;;;;15.40;6.40;;;;;;;13.49;100.00;100231.25;107375;1280;59026;-78
2023/04/27 02:37:39;;;;;;;19.80;6.10;;;;;;;13.46;100.00;100239.35;107061;1279;59302;-77
2023/04/27 02:40:06;;;;;;;20.90;7.10;;;;;;;13.47;100.00;100225.42;107433;1278;59054;-78
2023/04/27 02:42:32;;;;;;;21.40;6.60;;;;;;;13.51;100.00;100219.31;107111;1279;59009;-78
2023/04/27 02:44:57;;;;;;;21.60;7.40;;;;;;;13.52;100.00;100220.70;107505;1278;59089;-78
2023/04/27 02:47:23;;;;;;;18.10;7.70;;;;;;;13.53;100.00;100220.31;107367;1278;73925;-78
2023/04/27 02:49:49;;;;;;;20.10;8.90;;;;;;;13.52;100.00;100226.17;107502;1278;59118;-78
2023/04/27 02:52:14;;;;;;;22.20;8.20;;;;;;;13.56;100.00;100222.88;106919;1280;59545;-78
2023/04/27 02:54:40;;;;;;;19.40;8.70;;;;;;;13.70;100.00;100228.61;107456;1279;59122;-78
2023/04/27 02:57:05;;;;;;;18.90;7.60;;;;;;;13.64;100.00;100243.52;107529;1278;59026;-78
2023/04/27 02:59:31;;;;;;;13.80;6.30;;;;;;;13.65;100.00;100247.59;107415;1279;73422;-77
2023/04/27 03:01:57;;;;;;;17.60;6.70;;;;;;;13.64;100.00;100259.13;107303;1279;59318;-78
2023/04/27 03:04:23;;;;;;;18.80;6.50;;;;;;;13.58;100.00;100246.20;107484;1279;59023;-77
2023/04/27 03:06:51;;;;;;;15.00;6.40;;;;;;;13.63;100.00;100265.97;107481;1279;59059;-78
2023/04/27 03:09:16;;;;;;;15.40;6.40;;;;;;;13.68;100.00;100259.95;107326;1282;59153;-77
2023/04/27 03:11:42;;;;;;;16.30;5.90;;;;;;;13.71;100.00;100261.10;107454;1278;59184;-78
2023/04/27 03:14:07;;;;;;;16.60;5.70;;;;;;;13.76;100.00;100257.59;107477;1279;58973;-78
2023/04/27 03:16:33;;;;;;;13.50;6.50;;;;;;;13.85;100.00;100255.14;107502;1279;59536;-79
2023/04/27 03:18:59;;;;;;;15.30;5.70;;;;;;;13.89;100.00;100254.48;107488;1279;74341;-77
2023/04/27 03:21:25;;;;;;;12.00;5.20;;;;;;;14.00;100.00;100256.70;107433;1279;59047;-77
2023/04/27 03:23:51;;;;;;;16.60;6.50;;;;;;;14.09;100.00;100260.52;107419;1282;59007;-78
2023/04/27 03:26:23;;;;;;;15.20;6.10;;;;;;;14.20;100.00;100263.98;107508;1278;59356;-77
2023/04/27 03:28:48;;;;;;;14.30;5.40;;;;;;;14.18;100.00;100263.98;107494;1282;74192;-79
2023/04/27 03:31:14;;;;;;;11.60;5.50;;;;;;;14.15;100.00;100261.68;107060;1280;59137;-79
2023/04/27 03:33:40;;;;;;;12.00;5.60;;;;;;;14.24;100.00;100260.00;107437;1280;59393;-78
2023/04/27 03:36:07;;;;;;;17.00;5.40;;;;;;;14.31;100.00;100262.39;107450;1278;59072;-78
2023/04/27 03:38:34;;;;;;;15.50;6.20;;;;;;;14.37;100.00;100253.64;107459;1279;59033;-78
2023/04/27 03:41:00;;;;;;;20.60;8.00;;;;;;;14.37;100.00;100256.23;107500;1279;58944;-79
2023/04/27 03:43:26;;;;;;;28.50;11.10;;;;;;;14.40;100.00;100261.77;107452;1278;59079;-78
2023/04/27 03:45:51;;;;;;;24.30;8.70;;;;;;;14.42;100.00;100261.33;106898;1279;59066;-79
2023/04/27 03:48:17;;;;;;;14.20;6.00;;;;;;;14.40;100.00;100271.71;107518;1279;59059;-79
2023/04/27 03:50:43;;;;;;;18.60;5.70;;;;;;;14.41;100.00;100263.48;107528;1279;74916;-80
2023/04/27 03:53:10;;;;;;;15.90;6.00;;;;;;;14.44;100.00;100257.98;107458;1279;73709;-78
2023/04/27 03:55:44;;;;;;;24.40;7.10;;;;;;;14.42;100.00;100257.25;107457;1280;59079;-78
2023/04/27 03:58:10;;;;;;;15.40;5.90;;;;;;;14.43;100.00;100256.69;107441;1279;61856;-78
2023/04/27 04:00:39;;;;;;;11.40;4.80;;;;;;;14.56;100.00;100253.98;107014;1282;60828;-78
2023/04/27 04:03:08;;;;;;;14.10;4.90;;;;;;;14.58;100.00;100258.45;107041;1282;75463;-78
2023/04/27 04:05:34;;;;;;;13.00;5.20;;;;;;;14.52;100.00;100258.96;106732;1285;74174;-78
2023/04/27 04:07:59;;;;;;;16.70;5.30;;;;;;;14.47;100.00;100265.59;106425;1285;59094;-79
2023/04/27 04:10:25;;;;;;;14.80;5.40;;;;;;;14.47;100.00;100272.08;106603;1285;59026;-78
2023/04/27 04:12:51;;;;;;;14.00;5.90;;;;;;;14.46;100.00;100269.12;106729;1285;59152;-78
2023/04/27 04:15:17;;;;;;;14.00;5.60;;;;;;;14.44;100.00;100269.74;106800;1285;59149;-78
2023/04/27 04:17:43;;;;;;;14.20;5.60;;;;;;;14.40;100.00;100264.86;106764;1285;59394;-78
2023/04/27 04:20:09;;;;;;;13.00;5.40;;;;;;;14.44;100.00;100262.25;106428;1285;59510;-78
2023/04/27 04:22:38;;;;;;;13.60;4.90;;;;;;;14.52;100.00;100246.60;106739;1285;60574;-79
2023/04/27 04:25:04;;;;;;;14.90;5.70;;;;;;;14.61;100.00;100244.45;106762;1285;75363;-80
2023/04/27 04:27:33;;;;;;;18.40;5.70;;;;;;;14.66;100.00;100255.52;106744;1285;59126;-80
2023/04/27 04:29:59;;;;;;;10.30;4.80;;;;;;;14.57;100.00;100260.42;106738;1285;73422;-79
2023/04/27 04:32:30;;;;;;;11.00;5.60;;;;;;;14.64;100.00;100253.70;107038;1283;59097;-79
2023/04/27 04:34:56;;;;;;;14.10;5.50;;;;;;;14.71;100.00;100246.64;107148;1282;61093;-80
2023/04/27 04:37:22;;;;;;;16.90;5.70;;;;;;;14.72;100.00;100241.02;107123;1282;59112;-80
2023/04/27 04:39:47;;;;;;;14.90;5.60;;;;;;;14.75;100.00;100230.20;107204;1281;59098;-80
2023/04/27 04:42:13;;;;;;;16.40;5.60;;;;;;;14.81;100.00;100230.69;107151;1280;59250;-79
2023/04/27 04:44:38;;;;;;;14.20;6.00;;;;;;;14.88;100.00;100232.20;107091;1279;59084;-79
2023/04/27 04:47:05;;;;;;;12.80;6.10;;;;;;;14.90;100.00;100223.77;107526;1280;59363;-79
2023/04/27 04:49:31;;;;;;;10.70;5.90;;;;;;;14.96;100.00;100221.32;107522;1278;72805;-79
2023/04/27 04:51:57;;;;;;;13.10;5.90;;;;;;;14.98;100.00;100227.19;107455;1279;59139;-79
2023/04/27 04:54:22;;;;;;;14.10;6.00;;;;;;;14.97;100.00;100232.04;107063;1279;59141;-79
2023/04/27 04:56:50;;;;;;;17.60;5.70;;;;;;;15.02;100.00;100224.86;107468;1279;59134;-80
2023/04/27 04:59:16;;;;;;;19.20;6.40;;;;;;;15.04;100.00;100223.79;107466;1279;59098;-79
2023/04/27 05:01:42;;;;;;;17.40;6.80;;;;;;;15.04;100.00;100217.86;107372;1279;59112;-78
2023/04/27 05:04:07;;;;;;;13.80;6.20;;;;;;;15.05;100.00;100209.54;107495;1280;59004;-78
2023/04/27 05:06:33;;;;;;;13.40;6.10;;;;;;;15.06;100.00;100203.40;107453;1280;59317;-78
2023/04/27 05:08:58;;;;;;;17.60;6.80;;;;;;;15.05;100.00;100197.44;107498;1279;59034;-79
2023/04/27 05:11:24;;;;;;;14.90;6.80;;;;;;;15.04;100.00;100193.57;107436;1279;59150;-79
2023/04/27 05:13:49;;;;;;;23.50;7.60;;;;;;;15.05;100.00;100191.47;107451;1280;59102;-80
2023/04/27 05:16:15;;;;;;;15.90;7.40;;;;;;;15.09;100.00;100183.31;107423;1280;59035;-79
2023/04/27 05:18:41;;;;;;;15.10;6.90;;;;;;;15.13;100.00;100185.58;107496;1278;59040;-78
2023/04/27 05:21:14;;;;;;;16.80;6.40;;;;;;;15.18;100.00;100180.11;107255;1279;59148;-79
2023/04/27 05:23:39;;;;;;;20.30;6.40;;;;;;;15.20;100.00;100197.06;107475;1279;71656;-79
2023/04/27 05:26:13;;;;;;;12.50;6.30;;;;;;;15.19;100.00;100197.72;107472;1279;59070;-79
2023/04/27 05:28:39;;;;;;;22.60;7.10;;;;;;;15.17;100.00;100220.56;107461;1280;60981;-78
2023/04/27 05:31:05;;;;;;;12.70;6.40;;;;;;;15.17;100.00;100209.98;107453;1280;59067;-79
2023/04/27 05:33:32;;;;;;;17.00;7.70;;;;;;;15.23;100.00;100210.20;107470;1280;58951;-79
2023/04/27 05:35:58;;;;;;;13.60;6.80;;;;;;;15.27;100.00;100197.70;107037;1279;59285;-79
2023/04/27 05:38:24;;;;;;;12.60;7.20;;;;;;;15.30;100.00;100185.84;107326;1280;59065;-79
2023/04/27 05:40:54;;;;;;;17.70;6.80;;;;;;;15.35;100.00;100180.21;107428;1278;59169;-79
2023/04/27 05:43:20;;;;;;;15.20;7.20;;;;;;;15.44;100.00;100178.02;107106;1279;75033;-80
2023/04/27 05:45:46;;;;;;;15.10;6.90;;;;;;;15.57;100.00;100177.27;107475;1278;60573;-79
2023/04/27 05:48:13;;;;;;;16.40;7.60;;;;;;;15.69;100.00;100179.42;107439;1279;58995;-78
2023/04/27 05:50:38;;;;;;;16.30;7.50;;;;;;;15.92;100.00;100175.63;107451;1279;59041;-79
2023/04/27 05:53:04;;;;;;;20.80;7.50;;;;;;;16.03;100.00;100171.19;107496;1279;58982;-79
2023/04/27 05:55:30;;;;;;;14.30;6.90;;;;;;;16.16;100.00;100162.09;107408;1279;59084;-79
2023/04/27 05:57:56;;;;;;;17.50;7.90;;;;;;;16.43;100.00;100157.91;107478;1278;58943;-80
2023/04/27 06:00:22;;;;;;;19.20;7.40;;;;;;;17.00;100.00;100158.70;107176;1279;59153;-79
2023/04/27 06:02:47;;;;;;;18.80;7.10;;;;;;;17.49;100.00;100166.60;107046;1279;60312;-79
2023/04/27 06:05:13;;;;;;;12.90;5.70;;;;;;;17.68;100.00;100154.66;107455;1279;59133;-79
2023/04/27 06:07:40;;;;;;;15.50;5.50;;;;;;;17.87;100.00;100156.56;107460;1279;59184;-79
2023/04/27 06:10:06;;;;;;;12.50;5.10;;;;;;;17.88;100.00;100155.06;107451;1280;59400;-80
2023/04/27 06:12:32;;;;;;;11.20;5.70;;;;;;;17.95;100.00;100166.52;107038;1279;59067;-80
2023/04/27 06:14:58;;;;;;;18.70;5.70;;;;;;;18.02;100.00;100166.52;107470;1279;59211;-80
2023/04/27 06:17:23;;;;;;;21.10;6.60;;;;;;;18.40;100.00;100170.52;106994;1280;59535;-80
2023/04/27 06:19:49;;;;;;;11.50;5.60;;;;;;;18.66;100.00;100166.73;107502;1279;59069;-79
2023/04/27 06:22:14;;;;;;;15.00;5.80;;;;;;;18.72;100.00;100162.39;107461;1278;60837;-79
2023/04/27 06:24:41;;;;;;;14.70;5.20;;;;;;;18.75;100.00;100154.90;107457;1279;59051;-79
2023/04/27 06:27:06;;;;;;;11.50;5.20;;;;;;;19.03;100.00;100153.02;107354;1279;59155;-80
2023/04/27 06:29:32;;;;;;;11.40;5.10;;;;;;;19.25;100.00;100151.59;107389;1279;59083;-80
2023/04/27 06:31:58;;;;;;;17.30;5.20;;;;;;;19.30;100.00;100153.81;107342;1279;59083;-79
2023/04/27 06:34:24;;;;;;;10.10;4.10;;;;;;;19.82;100.00;100151.70;107339;1280;59047;-80
2023/04/27 06:36:49;;;;;;;10.80;4.00;;;;;;;20.55;100.00;100155.42;107381;1280;73154;-80
2023/04/27 06:39:15;;;;;;;9.60;4.60;;;;;;;20.48;100.00;100168.21;107461;1279;59213;-80
2023/04/27 06:41:40;;;;;;;11.30;3.90;;;;;;;20.25;100.00;100162.69;107139;1280;59085;-80
2023/04/27 06:44:06;;;;;;;12.20;3.70;;;;;;;20.29;100.00;100158.17;107143;1279;59101;-81
2023/04/27 06:46:32;;;;;;;11.20;3.80;;;;;;;20.66;100.00;100156.21;107515;1278;59032;-82
2023/04/27 06:48:57;;;;;;;8.60;3.80;;;;;;;20.90;100.00;100148.95;107458;1279;73638;-82
2023/04/27 06:51:23;;;;;;;10.50;3.70;;;;;;;20.99;98.56;100148.80;107426;1279;59428;-83
2023/04/27 06:53:49;;;;;;;10.40;4.20;;;;;;;20.90;94.50;100145.84;107475;1279;59033;-82
2023/04/27 06:56:15;;;;;;;9.40;3.60;;;;;;;20.75;98.85;100144.25;107021;1280;59086;-82
2023/04/27 06:58:40;;;;;;;5.70;2.90;;;;;;;21.17;100.00;100142.41;107507;1279;59141;-82
2023/04/27 07:01:06;;;;;;;9.10;3.20;;;;;;;21.62;97.85;100139.60;107508;1279;59130;-82
2023/04/27 07:03:35;;;;;;;7.40;3.20;;;;;;;21.53;93.30;100140.30;107337;1279;60381;-82
2023/04/27 07:06:00;;;;;;;11.40;3.40;;;;;;;21.43;94.51;100142.81;107477;1279;61276;-82
2023/04/27 07:08:26;;;;;;;11.50;3.10;;;;;;;21.54;93.92;100146.20;107480;1279;59054;-81
2023/04/27 07:10:52;;;;;;;9.40;3.40;;;;;;;21.85;91.17;100147.44;107070;1280;59076;-82
2023/04/27 07:13:17;;;;;;;8.00;3.40;;;;;;;21.66;88.75;100144.98;107487;1280;59160;-82
2023/04/27 07:15:43;;;;;;;9.00;3.60;;;;;;;21.93;91.78;100147.52;107527;1279;59061;-82
2023/04/27 07:18:10;;;;;;;11.20;2.90;;;;;;;22.22;87.09;100150.19;107140;1280;59074;-82
2023/04/27 07:20:37;;;;;;;12.30;3.90;;;;;;;21.98;83.66;100147.66;107495;1278;73333;-81
2023/04/27 07:23:02;;;;;;;8.80;3.30;;;;;;;21.45;84.44;100147.96;107480;1279;59129;-82
2023/04/27 07:25:28;;;;;;;13.60;3.20;;;;;;;21.11;87.51;100147.16;107440;1280;59081;-82
2023/04/27 07:27:54;;;;;;;10.40;3.50;;;;;;;21.23;90.32;100148.25;107511;1278;59058;-81
2023/04/27 07:30:19;;;;;;;7.20;3.30;;;;;;;21.56;91.13;100144.06;107051;1280;59218;-81
2023/04/27 07:32:46;;;;;;;15.50;3.40;;;;;;;21.99;89.09;100141.02;107518;1279;59190;-81
2023/04/27 07:35:12;;;;;;;7.30;3.80;;;;;;;22.74;88.23;100135.25;107474;1279;61140;-81
2023/04/27 07:37:39;;;;;;;7.20;2.90;;;;;;;24.28;81.39;100118.41;107392;1278;58987;-83
2023/04/27 07:40:13;;;;;;;5.80;3.20;;;;;;;25.15;73.22;100114.77;107328;1280;59153;-83
2023/04/27 07:42:40;;;;;;;7.30;2.90;;;;;;;26.16;68.29;100111.02;107078;1279;74126;-82
2023/04/27 07:45:31;;;;;;;7.70;3.20;;;;;;;26.95;62.80;100110.31;107377;1279;72999;-83
2023/04/27 07:48:00;;;;;;;8.80;3.50;;;;;;;27.48;60.91;100108.91;107491;1278;60201;-83
2023/04/27 07:50:28;;;;;;;10.90;3.70;;;;;;;28.42;58.57;100103.77;107351;1279;60136;-81
2023/04/27 07:52:54;;;;;;;10.00;3.50;;;;;;;28.99;54.95;100103.04;107480;1279;75308;-81
2023/04/27 07:55:22;;;;;;;9.60;3.20;;;;;;;29.32;53.66;100094.02;107535;1279;59011;-82
2023/04/27 07:57:55;;;;;;;9.00;3.40;;;;;;;30.15;52.86;100087.00;107441;1278;72655;-82
2023/04/27 08:00:21;;;;;;;7.90;3.50;;;;;;;30.52;49.14;100084.65;107497;1278;59943;-80
2023/04/27 08:02:47;;;;;;;7.60;4.30;;;;;;;30.84;47.95;100078.23;107476;1279;60944;-81
2023/04/27 08:05:13;;;;;;;8.00;3.40;;;;;;;31.24;48.25;100079.42;107307;1279;59032;-81
2023/04/27 08:07:39;;;;;;;10.30;3.40;;;;;;;32.11;46.69;100078.01;107361;1279;59158;-81
2023/04/27 08:10:07;;;;;;;10.40;3.70;;;;;;;32.76;45.99;100074.27;107374;1279;59667;-81
2023/04/27 08:12:33;;;;;;;6.50;3.60;;;;;;;32.81;41.72;100074.88;107322;1278;59063;-81
2023/04/27 08:14:58;;;;;;;10.70;4.10;;;;;;;31.98;42.01;100082.27;107485;1279;58979;-83
2023/04/27 08:17:24;;;;;;;8.60;4.20;;;;;;;31.52;41.99;100084.01;107338;1280;59098;-82
2023/04/27 08:19:50;;;;;;;6.80;4.00;;;;;;;31.51;43.62;100075.27;107383;1279;59129;-82
2023/04/27 08:22:16;;;;;;;11.90;3.80;;;;;;;31.63;42.31;100076.86;106960;1279;59117;-82
2023/04/27 08:24:42;;;;;;;8.00;3.10;;;;;;;31.11;42.68;100086.08;107178;1279;59144;-82
2023/04/27 08:27:08;;;;;;;12.90;3.10;;;;;;;30.90;42.70;100082.87;107081;1279;75446;-81
2023/04/27 08:29:33;;;;;;;11.70;3.20;;;;;;;30.52;41.64;100082.74;107366;1280;60036;-83
2023/04/27 08:32:00;;;;;;;10.10;3.50;;;;;;;30.44;41.77;100082.48;107088;1280;59119;-82
2023/04/27 08:34:27;;;;;;;8.30;3.20;;;;;;;29.94;41.19;100084.42;107489;1279;58987;-82
2023/04/27 08:36:53;;;;;;;6.00;3.10;;;;;;;29.54;42.26;100078.77;107499;1279;59470;-82
2023/04/27 08:39:19;;;;;;;9.80;3.70;;;;;;;29.41;43.09;100084.42;107483;1279;59030;-81
2023/04/27 08:41:45;;;;;;;10.50;3.40;;;;;;;29.66;43.08;100081.19;107506;1279;59147;-83
2023/04/27 08:44:11;;;;;;;9.70;3.10;;;;;;;29.68;42.12;100079.20;107484;1279;59346;-83
2023/04/27 08:46:37;;;;;;;6.60;3.50;;;;;;;29.84;42.96;100079.54;107518;1279;59018;-82
2023/04/27 08:49:03;;;;;;;8.30;3.30;;;;;;;29.62;42.37;100074.46;107505;1279;59006;-83
2023/04/27 08:51:30;;;;;;;9.50;3.20;;;;;;;28.92;42.95;100074.55;107547;1279;59033;-82
2023/04/27 08:53:57;;;;;;;8.50;3.70;;;;;;;28.24;45.06;100069.98;107473;1280;73495;-83
2023/04/27 08:56:26;;;;;;;5.10;3.00;;;;;;;28.01;45.76;100070.00;107482;1279;60170;-82
2023/04/27 08:58:53;;;;;;;5.50;2.80;;;;;;;27.74;45.84;100066.33;107495;1279;60916;-82
2023/04/27 09:01:19;;;;;;;5.40;3.20;;;;;;;27.51;46.82;100065.41;107476;1279;59099;-82
2023/04/27 09:03:45;;;;;;;9.50;3.70;;;;;;;27.46;46.73;100068.48;107531;1280;59027;-83
2023/04/27 09:06:12;;;;;;;11.00;3.10;;;;;;;26.84;47.60;100065.44;107488;1279;59077;-82
2023/04/27 09:08:48;;;;;;;7.50;3.00;;;;;;;26.13;48.85;100067.66;107442;1278;60464;-81
2023/04/27 09:11:26;;;;;;;6.10;2.90;;;;;;;25.58;51.28;100061.89;107505;1279;60195;-82
2023/04/27 09:13:52;;;;;;;8.30;2.90;;;;;;;25.48;51.95;100067.90;107058;1280;74485;-82
2023/04/27 09:16:22;;;;;;;10.00;3.40;;;;;;;25.41;52.51;100065.73;107396;1279;59012;-81
2023/04/27 09:18:48;;;;;;;7.80;3.30;;;;;;;26.37;51.95;100070.85;107365;1279;72827;-80
2023/04/27 09:21:30;;;;;;;7.60;3.20;;;;;;;26.36;50.95;100072.27;107022;1280;58998;-81
2023/04/27 09:23:56;;;;;;;11.00;3.10;;;;;;;26.27;51.90;100069.48;107379;1279;61130;-81
2023/04/27 09:26:26;;;;;;;12.60;3.10;;;;;;;26.92;51.28;100067.55;107069;1279;59169;-81
2023/04/27 09:28:56;;;;;;;8.40;3.20;;;;;;;27.82;49.74;100061.45;107355;1280;73524;-82
2023/04/27 09:31:33;;;;;;;9.80;3.40;;;;;;;28.42;48.46;100061.48;107390;1279;73685;-81
2023/04/27 09:33:58;;;;;;;5.50;2.80;;;;;;;28.16;47.46;100057.91;106931;1284;60103;-82
2023/04/27 09:36:25;;;;;;;7.00;3.30;;;;;;;27.88;48.23;100056.98;107030;1284;59084;-82
2023/04/27 09:38:53;;;;;;;10.30;3.00;;;;;;;28.03;48.10;100053.07;106577;1285;59071;-81
2023/04/27 09:41:18;;;;;;;8.20;3.10;;;;;;;28.57;47.97;100046.36;106959;1284;74388;-81
2023/04/27 09:43:46;;;;;;;3.80;2.50;;;;;;;29.26;46.84;100042.02;106838;1283;59513;-81
2023/04/27 09:46:13;;;;;;;9.80;3.60;;;;;;;29.82;46.87;100038.34;106974;1284;58985;-81
2023/04/27 09:48:39;;;;;;;6.90;2.80;;;;;;;30.52;46.52;100040.54;106976;1285;60927;-81
2023/04/27 09:51:06;;;;;;;6.90;2.60;;;;;;;31.26;44.36;100042.18;106934;1285;75366;-81
2023/04/27 09:53:52;;;;;;;10.20;2.90;;;;;;;31.60;42.47;100042.67;106956;1285;59112;-81
2023/04/27 09:57:03;;;;;;;5.60;2.80;;;;;;;31.42;41.97;100037.98;106913;1285;73491;-81
2023/04/27 09:59:40;;;;;;;11.00;2.70;;;;;;;31.36;40.71;100032.94;106995;1283;60995;-82
2023/04/27 10:02:11;;;;;;;6.60;2.40;;;;;;;31.25;40.60;100039.71;107008;1284;60893;-82
2023/04/27 10:04:43;;;;;;;6.10;2.80;;;;;;;31.15;40.21;100031.95;106715;1282;74396;-82
2023/04/27 10:07:13;;;;;;;5.40;2.70;;;;;;;30.75;40.13;100032.80;107104;1282;72630;-82
2023/04/27 10:09:45;;;;;;;6.60;3.00;;;;;;;30.38;40.98;100038.18;107077;1282;72342;-81
2023/04/27 10:12:16;;;;;;;7.90;2.80;;;;;;;30.15;41.42;100038.80;106896;1282;60054;-79
2023/04/27 10:14:53;;;;;;;8.60;3.00;;;;;;;29.85;41.20;100032.69;107042;1282;61145;-83
2023/04/27 10:17:33;;;;;;;6.30;2.60;;;;;;;29.62;41.83;100027.32;106997;1282;75506;-81
2023/04/27 10:20:02;;;;;;;10.60;2.60;;;;;;;29.56;42.16;100023.99;106806;1282;73787;-80
2023/04/27 10:22:46;;;;;;;10.90;2.40;;;;;;;29.58;42.72;100025.48;106664;1286;71065;-84
2023/04/27 10:25:29;;;;;;;9.90;2.00;;;;;;;29.61;42.55;100029.30;106783;1285;61027;-85
2023/04/27 10:28:00;;;;;;;8.30;3.50;;;;;;;29.73;43.57;100026.73;106668;1282;60313;-82
2023/04/27 10:30:38;;;;;;;8.20;2.90;;;;;;;30.05;43.13;100031.46;106577;1287;74744;-84
2023/04/27 10:33:08;;;;;;;6.40;2.40;;;;;;;30.38;42.19;100029.92;107062;1282;73188;-84
2023/04/27 10:35:39;;;;;;;10.90;2.40;;;;;;;30.55;41.22;100031.46;107018;1282;72414;-85
2023/04/27 10:38:16;;;;;;;11.70;2.80;;;;;;;30.53;41.75;100032.75;106470;1286;61629;-85
2023/04/27 10:40:53;;;;;;;6.10;2.10;;;;;;;30.76;40.95;100034.71;107057;1283;59340;-84
2023/04/27 10:43:24;;;;;;;6.40;2.60;;;;;;;30.77;40.70;100033.98;107499;1279;74475;-85
2023/04/27 10:45:50;;;;;;;5.30;2.20;;;;;;;30.91;40.51;100032.44;107305;1279;73273;-85
2023/04/27 10:48:15;;;;;;;6.80;2.50;;;;;;;30.98;39.96;100033.80;107107;1279;59161;-85
2023/04/27 10:50:43;;;;;;;7.30;2.60;;;;;;;30.97;39.89;100032.55;107510;1278;59267;-83
2023/04/27 10:53:09;;;;;;;8.50;2.20;;;;;;;30.61;39.76;100034.20;106915;1285;59245;-84
2023/04/27 10:55:35;;;;;;;8.70;2.50;;;;;;;30.37;39.74;100031.69;106418;1287;59288;-85
2023/04/27 10:58:02;;;;;;;5.70;2.20;;;;;;;30.23;39.57;100031.30;106541;1287;59105;-85
2023/04/27 11:00:31;;;;;;;5.50;2.80;;;;;;;30.14;39.18;100031.83;106392;1287;59043;-85
2023/04/27 11:03:10;;;;;;;7.40;2.50;;;;;;;29.77;39.30;100029.17;106546;1287;60074;-82
2023/04/27 11:08:57;;;;;;;4.70;2.20;;;;;;;29.41;40.00;100027.31;106569;1287;73253;-82
2023/04/27 11:11:24;;;;;;;5.00;2.50;;;;;;;29.46;40.40;100023.48;106574;1287;72173;-82